sensor_id;sensor_type;location;lat;lon;timestamp;P1;durP1;ratioP1;P2;durP2;ratioP2
60030;SDS011;45901;47.600;9.890;2023-02-21T03:04:57;2.83;;;1.63;;
60030;SDS011;45901;47.600;9.890;2023-02-21T03:08:01;2.93;;;1.37;;
60030;SDS011;45901;47.600;9.890;2023-02-21T03:10:37;2.30;;;1.30;;
60030;SDS011;45901;47.600;9.890;2023-02-21T03:13:11;2.33;;;1.17;;
60030;SDS011;45901;47.600;9.890;2023-02-21T03:15:45;2.67;;;1.20;;
60030;SDS011;45901;47.600;9.890;2023-02-21T03:18:19;3.70;;;1.27;;
60030;SDS011;45901;47.600;9.890;2023-02-21T03:20:58;2.37;;;1.20;;
60030;SDS011;45901;47.600;9.890;2023-02-21T03:23:31;2.53;;;1.47;;
60030;SDS011;45901;47.600;9.890;2023-02-21T03:26:00;10.40;;;1.53;;
60030;SDS011;45901;47.600;9.890;2023-02-21T03:28:34;2.17;;;1.37;;
60030;SDS011;45901;47.600;9.890;2023-02-21T03:31:03;3.30;;;1.33;;
60030;SDS011;45901;47.600;9.890;2023-02-21T03:33:39;3.60;;;1.70;;
60030;SDS011;45901;47.600;9.890;2023-02-21T03:36:08;1.57;;;1.07;;
60030;SDS011;45901;47.600;9.890;2023-02-21T03:38:36;3.07;;;1.20;;
60030;SDS011;45901;47.600;9.890;2023-02-21T03:41:04;3.73;;;1.00;;
60030;SDS011;45901;47.600;9.890;2023-02-21T03:43:33;1.73;;;0.93;;
60030;SDS011;45901;47.600;9.890;2023-02-21T03:46:00;2.17;;;1.10;;
60030;SDS011;45901;47.600;9.890;2023-02-21T03:48:34;5.60;;;1.53;;
60030;SDS011;45901;47.600;9.890;2023-02-21T03:51:01;2.37;;;1.40;;
60030;SDS011;45901;47.600;9.890;2023-02-21T03:53:38;4.87;;;1.30;;
60030;SDS011;45901;47.600;9.890;2023-02-21T03:56:08;2.73;;;1.50;;
60030;SDS011;45901;47.600;9.890;2023-02-21T03:58:35;2.83;;;1.50;;
60030;SDS011;45901;47.600;9.890;2023-02-21T04:01:03;2.27;;;1.20;;
60030;SDS011;45901;47.600;9.890;2023-02-21T04:03:30;3.57;;;1.40;;
60030;SDS011;45901;47.600;9.890;2023-02-21T04:05:57;2.93;;;1.33;;
60030;SDS011;45901;47.600;9.890;2023-02-21T04:08:25;7.53;;;1.47;;
60030;SDS011;45901;47.600;9.890;2023-02-21T04:10:53;3.60;;;1.30;;
60030;SDS011;45901;47.600;9.890;2023-02-21T04:13:20;1.93;;;1.23;;
60030;SDS011;45901;47.600;9.890;2023-02-21T04:15:48;3.63;;;1.30;;
60030;SDS011;45901;47.600;9.890;2023-02-21T04:18:15;2.83;;;0.90;;
60030;SDS011;45901;47.600;9.890;2023-02-21T04:20:42;2.30;;;1.17;;
60030;SDS011;45901;47.600;9.890;2023-02-21T04:23:10;2.27;;;1.10;;
60030;SDS011;45901;47.600;9.890;2023-02-21T04:25:40;1.87;;;0.93;;
60030;SDS011;45901;47.600;9.890;2023-02-21T04:28:09;2.60;;;1.17;;
60030;SDS011;45901;47.600;9.890;2023-02-21T04:30:36;5.60;;;1.40;;
60030;SDS011;45901;47.600;9.890;2023-02-21T04:33:03;3.83;;;1.20;;
60030;SDS011;45901;47.600;9.890;2023-02-21T04:35:30;3.03;;;1.10;;
60030;SDS011;45901;47.600;9.890;2023-02-21T04:37:58;4.80;;;1.10;;
60030;SDS011;45901;47.600;9.890;2023-02-21T04:40:25;3.00;;;1.10;;
60030;SDS011;45901;47.600;9.890;2023-02-21T04:42:52;5.33;;;1.20;;
60030;SDS011;45901;47.600;9.890;2023-02-21T04:45:21;4.93;;;1.30;;
60030;SDS011;45901;47.600;9.890;2023-02-21T04:47:48;3.67;;;1.27;;
60030;SDS011;45901;47.600;9.890;2023-02-21T04:50:15;4.10;;;1.40;;
60030;SDS011;45901;47.600;9.890;2023-02-21T04:52:43;1.80;;;0.87;;
60030;SDS011;45901;47.600;9.890;2023-02-21T04:55:18;3.40;;;1.10;;
60030;SDS011;45901;47.600;9.890;2023-02-21T04:57:45;2.97;;;1.10;;
60030;SDS011;45901;47.600;9.890;2023-02-21T05:00:14;1.90;;;1.07;;
60030;SDS011;45901;47.600;9.890;2023-02-21T05:02:43;1.83;;;1.10;;
60030;SDS011;45901;47.600;9.890;2023-02-21T05:05:11;2.37;;;1.10;;
60030;SDS011;45901;47.600;9.890;2023-02-21T05:07:39;1.73;;;1.03;;
60030;SDS011;45901;47.600;9.890;2023-02-21T05:10:07;2.73;;;1.10;;
60030;SDS011;45901;47.600;9.890;2023-02-21T05:12:35;3.03;;;1.13;;
60030;SDS011;45901;47.600;9.890;2023-02-21T05:15:04;5.33;;;1.37;;
60030;SDS011;45901;47.600;9.890;2023-02-21T05:17:32;1.03;;;0.80;;
60030;SDS011;45901;47.600;9.890;2023-02-21T05:20:01;2.63;;;1.30;;
60030;SDS011;45901;47.600;9.890;2023-02-21T05:22:29;1.97;;;1.07;;
60030;SDS011;45901;47.600;9.890;2023-02-21T05:24:56;3.37;;;1.40;;
60030;SDS011;45901;47.600;9.890;2023-02-21T05:27:23;4.10;;;1.33;;
60030;SDS011;45901;47.600;9.890;2023-02-21T05:29:51;2.87;;;1.37;;
60030;SDS011;45901;47.600;9.890;2023-02-21T05:32:20;3.07;;;0.87;;
60030;SDS011;45901;47.600;9.890;2023-02-21T05:34:47;3.10;;;1.23;;
60030;SDS011;45901;47.600;9.890;2023-02-21T05:37:16;3.43;;;1.63;;
60030;SDS011;45901;47.600;9.890;2023-02-21T05:39:45;3.57;;;1.20;;
60030;SDS011;45901;47.600;9.890;2023-02-21T05:42:12;2.23;;;1.40;;
60030;SDS011;45901;47.600;9.890;2023-02-21T05:44:42;7.73;;;1.53;;
60030;SDS011;45901;47.600;9.890;2023-02-21T05:47:10;5.53;;;1.20;;
60030;SDS011;45901;47.600;9.890;2023-02-21T05:49:37;2.40;;;1.30;;
60030;SDS011;45901;47.600;9.890;2023-02-21T05:52:06;4.57;;;1.77;;
60030;SDS011;45901;47.600;9.890;2023-02-21T05:54:35;3.17;;;1.40;;
60030;SDS011;45901;47.600;9.890;2023-02-21T05:57:03;7.43;;;1.70;;
60030;SDS011;45901;47.600;9.890;2023-02-21T05:59:30;6.73;;;1.83;;
60030;SDS011;45901;47.600;9.890;2023-02-21T06:01:57;5.83;;;2.10;;
60030;SDS011;45901;47.600;9.890;2023-02-21T06:04:24;6.63;;;2.63;;
60030;SDS011;45901;47.600;9.890;2023-02-21T06:06:52;6.63;;;2.80;;
60030;SDS011;45901;47.600;9.890;2023-02-21T06:09:19;4.23;;;2.10;;
60030;SDS011;45901;47.600;9.890;2023-02-21T06:11:50;8.63;;;2.33;;
60030;SDS011;45901;47.600;9.890;2023-02-21T06:14:22;4.30;;;2.27;;
60030;SDS011;45901;47.600;9.890;2023-02-21T06:16:51;6.97;;;2.73;;
60030;SDS011;45901;47.600;9.890;2023-02-21T06:19:18;9.57;;;2.60;;
60030;SDS011;45901;47.600;9.890;2023-02-21T06:21:45;8.70;;;2.93;;
60030;SDS011;45901;47.600;9.890;2023-02-21T06:24:13;11.70;;;3.50;;
60030;SDS011;45901;47.600;9.890;2023-02-21T06:26:40;8.93;;;4.30;;
60030;SDS011;45901;47.600;9.890;2023-02-21T06:29:08;12.93;;;4.57;;
60030;SDS011;45901;47.600;9.890;2023-02-21T06:31:36;13.30;;;6.03;;
60030;SDS011;45901;47.600;9.890;2023-02-21T06:34:04;9.33;;;5.33;;
60030;SDS011;45901;47.600;9.890;2023-02-21T06:36:31;12.20;;;5.57;;
60030;SDS011;45901;47.600;9.890;2023-02-21T06:38:59;13.60;;;5.30;;
60030;SDS011;45901;47.600;9.890;2023-02-21T06:44:32;11.80;;;5.10;;
60030;SDS011;45901;47.600;9.890;2023-02-21T06:47:00;14.90;;;5.60;;
60030;SDS011;45901;47.600;9.890;2023-02-21T06:49:35;16.27;;;5.97;;
60030;SDS011;45901;47.600;9.890;2023-02-21T06:52:09;11.63;;;5.90;;
60030;SDS011;45901;47.600;9.890;2023-02-21T06:54:36;11.07;;;5.03;;
60030;SDS011;45901;47.600;9.890;2023-02-21T06:57:03;16.10;;;6.20;;
60030;SDS011;45901;47.600;9.890;2023-02-21T06:59:35;26.73;;;7.43;;
60030;SDS011;45901;47.600;9.890;2023-02-21T07:04:42;18.83;;;6.93;;
60030;SDS011;45901;47.600;9.890;2023-02-21T07:07:12;21.63;;;6.83;;
60030;SDS011;45901;47.600;9.890;2023-02-21T07:09:40;14.93;;;5.97;;
60030;SDS011;45901;47.600;9.890;2023-02-21T07:12:07;17.17;;;5.93;;
60030;SDS011;45901;47.600;9.890;2023-02-21T07:14:36;17.93;;;7.30;;
60030;SDS011;45901;47.600;9.890;2023-02-21T07:17:03;27.53;;;7.60;;
60030;SDS011;45901;47.600;9.890;2023-02-21T07:19:30;16.47;;;7.20;;
60030;SDS011;45901;47.600;9.890;2023-02-21T07:21:58;22.13;;;7.10;;
60030;SDS011;45901;47.600;9.890;2023-02-21T07:24:25;19.90;;;6.40;;
60030;SDS011;45901;47.600;9.890;2023-02-21T07:26:52;34.30;;;7.40;;
60030;SDS011;45901;47.600;9.890;2023-02-21T07:29:22;17.00;;;6.17;;
60030;SDS011;45901;47.600;9.890;2023-02-21T07:32:02;19.43;;;6.37;;
60030;SDS011;45901;47.600;9.890;2023-02-21T07:35:21;15.27;;;5.20;;
60030;SDS011;45901;47.600;9.890;2023-02-21T07:41:52;13.93;;;5.97;;
60030;SDS011;45901;47.600;9.890;2023-02-21T07:45:51;15.63;;;6.30;;
60030;SDS011;45901;47.600;9.890;2023-02-21T07:49:17;20.87;;;7.20;;
60030;SDS011;45901;47.600;9.890;2023-02-21T07:52:54;19.77;;;7.37;;
60030;SDS011;45901;47.600;9.890;2023-02-21T07:55:34;15.20;;;7.73;;
60030;SDS011;45901;47.600;9.890;2023-02-21T07:58:29;15.37;;;6.87;;
60030;SDS011;45901;47.600;9.890;2023-02-21T08:01:03;15.07;;;6.80;;
60030;SDS011;45901;47.600;9.890;2023-02-21T08:04:04;13.53;;;6.00;;
60030;SDS011;45901;47.600;9.890;2023-02-21T08:07:09;13.80;;;5.20;;
60030;SDS011;45901;47.600;9.890;2023-02-21T08:10:25;16.47;;;6.83;;
60030;SDS011;45901;47.600;9.890;2023-02-21T08:49:33;3.80;;;1.83;;
60030;SDS011;45901;47.600;9.890;2023-02-21T08:52:05;3.70;;;1.67;;
60030;SDS011;45901;47.600;9.890;2023-02-21T08:54:33;6.10;;;1.50;;
60030;SDS011;45901;47.600;9.890;2023-02-21T08:57:00;3.80;;;1.60;;
60030;SDS011;45901;47.600;9.890;2023-02-21T08:59:28;4.90;;;1.70;;
60030;SDS011;45901;47.600;9.890;2023-02-21T09:01:57;6.30;;;1.70;;
60030;SDS011;45901;47.600;9.890;2023-02-21T09:04:27;2.77;;;1.17;;
60030;SDS011;45901;47.600;9.890;2023-02-21T09:06:56;2.40;;;1.20;;
60030;SDS011;45901;47.600;9.890;2023-02-21T09:09:27;1.87;;;1.07;;
60030;SDS011;45901;47.600;9.890;2023-02-21T09:12:08;4.13;;;1.00;;
60030;SDS011;45901;47.600;9.890;2023-02-21T09:14:36;5.60;;;1.00;;
60030;SDS011;45901;47.600;9.890;2023-02-21T09:17:10;2.27;;;0.90;;
60030;SDS011;45901;47.600;9.890;2023-02-21T09:19:40;2.77;;;1.00;;
60030;SDS011;45901;47.600;9.890;2023-02-21T09:22:10;4.33;;;1.50;;
60030;SDS011;45901;47.600;9.890;2023-02-21T09:24:37;4.73;;;1.03;;
60030;SDS011;45901;47.600;9.890;2023-02-21T09:27:05;2.33;;;1.20;;
60030;SDS011;45901;47.600;9.890;2023-02-21T09:29:33;3.47;;;0.90;;
60030;SDS011;45901;47.600;9.890;2023-02-21T09:32:02;6.60;;;0.87;;
60030;SDS011;45901;47.600;9.890;2023-02-21T09:34:32;3.13;;;1.10;;
60030;SDS011;45901;47.600;9.890;2023-02-21T09:37:03;3.07;;;0.83;;
60030;SDS011;45901;47.600;9.890;2023-02-21T09:39:37;4.03;;;1.07;;
60030;SDS011;45901;47.600;9.890;2023-02-21T09:42:27;3.23;;;1.17;;
60030;SDS011;45901;47.600;9.890;2023-02-21T09:45:07;1.17;;;0.67;;
60030;SDS011;45901;47.600;9.890;2023-02-21T09:47:41;2.93;;;0.90;;
60030;SDS011;45901;47.600;9.890;2023-02-21T09:50:24;2.47;;;0.93;;
60030;SDS011;45901;47.600;9.890;2023-02-21T09:52:58;5.20;;;0.70;;
60030;SDS011;45901;47.600;9.890;2023-02-21T09:55:34;1.20;;;0.53;;
60030;SDS011;45901;47.600;9.890;2023-02-21T09:58:08;2.43;;;0.80;;
60030;SDS011;45901;47.600;9.890;2023-02-21T10:00:38;3.10;;;0.60;;
60030;SDS011;45901;47.600;9.890;2023-02-21T10:03:20;4.50;;;0.90;;
60030;SDS011;45901;47.600;9.890;2023-02-21T10:06:02;2.27;;;0.90;;
60030;SDS011;45901;47.600;9.890;2023-02-21T10:08:39;3.10;;;0.70;;
60030;SDS011;45901;47.600;9.890;2023-02-21T10:11:20;4.73;;;0.60;;
60030;SDS011;45901;47.600;9.890;2023-02-21T10:14:01;1.30;;;0.50;;
60030;SDS011;45901;47.600;9.890;2023-02-21T10:16:52;4.73;;;0.50;;
60030;SDS011;45901;47.600;9.890;2023-02-21T10:19:31;2.97;;;0.50;;
60030;SDS011;45901;47.600;9.890;2023-02-21T10:22:08;2.80;;;0.50;;
60030;SDS011;45901;47.600;9.890;2023-02-21T10:24:44;1.23;;;0.50;;
60030;SDS011;45901;47.600;9.890;2023-02-21T10:27:15;2.57;;;0.90;;
60030;SDS011;45901;47.600;9.890;2023-02-21T10:29:45;4.33;;;0.97;;
60030;SDS011;45901;47.600;9.890;2023-02-21T10:32:19;1.97;;;1.00;;
60030;SDS011;45901;47.600;9.890;2023-02-21T10:34:48;3.37;;;1.00;;
60030;SDS011;45901;47.600;9.890;2023-02-21T10:37:24;3.10;;;1.00;;
60030;SDS011;45901;47.600;9.890;2023-02-21T10:40:05;1.87;;;0.70;;
60030;SDS011;45901;47.600;9.890;2023-02-21T10:42:55;2.50;;;0.80;;
60030;SDS011;45901;47.600;9.890;2023-02-21T10:45:29;3.43;;;1.00;;
60030;SDS011;45901;47.600;9.890;2023-02-21T10:48:02;3.33;;;0.93;;
60030;SDS011;45901;47.600;9.890;2023-02-21T10:50:42;0.90;;;0.80;;
60030;SDS011;45901;47.600;9.890;2023-02-21T10:53:22;2.07;;;1.10;;
60030;SDS011;45901;47.600;9.890;2023-02-21T10:58:53;3.10;;;0.97;;
60030;SDS011;45901;47.600;9.890;2023-02-21T11:01:35;2.37;;;1.17;;
60030;SDS011;45901;47.600;9.890;2023-02-21T11:04:21;2.93;;;1.20;;
60030;SDS011;45901;47.600;9.890;2023-02-21T11:06:58;2.03;;;0.90;;
60030;SDS011;45901;47.600;9.890;2023-02-21T11:09:36;5.23;;;0.87;;
60030;SDS011;45901;47.600;9.890;2023-02-21T11:12:20;3.40;;;1.07;;
60030;SDS011;45901;47.600;9.890;2023-02-21T11:15:17;2.60;;;0.90;;
60030;SDS011;45901;47.600;9.890;2023-02-21T11:18:11;2.97;;;0.90;;
60030;SDS011;45901;47.600;9.890;2023-02-21T11:20:51;2.53;;;1.27;;
60030;SDS011;45901;47.600;9.890;2023-02-21T11:23:24;2.27;;;0.70;;
60030;SDS011;45901;47.600;9.890;2023-02-21T11:25:56;4.00;;;1.10;;
60030;SDS011;45901;47.600;9.890;2023-02-21T11:28:33;3.37;;;0.90;;
60030;SDS011;45901;47.600;9.890;2023-02-21T11:31:06;2.20;;;1.10;;
60030;SDS011;45901;47.600;9.890;2023-02-21T11:33:43;3.30;;;1.40;;
60030;SDS011;45901;47.600;9.890;2023-02-21T11:36:20;3.60;;;1.17;;
60030;SDS011;45901;47.600;9.890;2023-02-21T11:39:02;5.27;;;1.57;;
60030;SDS011;45901;47.600;9.890;2023-02-21T11:41:43;5.00;;;1.70;;
60030;SDS011;45901;47.600;9.890;2023-02-21T11:44:24;4.50;;;1.87;;
60030;SDS011;45901;47.600;9.890;2023-02-21T11:47:07;4.57;;;1.60;;
60030;SDS011;45901;47.600;9.890;2023-02-21T11:49:42;4.60;;;1.20;;
60030;SDS011;45901;47.600;9.890;2023-02-21T11:52:19;8.23;;;1.77;;
60030;SDS011;45901;47.600;9.890;2023-02-21T11:54:51;1.97;;;1.13;;
60030;SDS011;45901;47.600;9.890;2023-02-21T11:57:20;3.00;;;1.30;;
60030;SDS011;45901;47.600;9.890;2023-02-21T11:59:58;2.93;;;1.20;;
60030;SDS011;45901;47.600;9.890;2023-02-21T12:02:50;5.03;;;1.20;;
60030;SDS011;45901;47.600;9.890;2023-02-21T12:05:39;2.87;;;1.07;;
60030;SDS011;45901;47.600;9.890;2023-02-21T12:08:26;4.53;;;1.20;;
60030;SDS011;45901;47.600;9.890;2023-02-21T12:11:19;4.40;;;1.30;;
60030;SDS011;45901;47.600;9.890;2023-02-21T12:14:14;3.43;;;1.00;;
60030;SDS011;45901;47.600;9.890;2023-02-21T12:17:05;2.63;;;1.30;;
60030;SDS011;45901;47.600;9.890;2023-02-21T12:19:55;5.40;;;1.30;;
60030;SDS011;45901;47.600;9.890;2023-02-21T12:22:55;2.77;;;0.90;;
60030;SDS011;45901;47.600;9.890;2023-02-21T12:25:40;2.50;;;1.20;;
60030;SDS011;45901;47.600;9.890;2023-02-21T12:28:30;2.77;;;1.27;;
60030;SDS011;45901;47.600;9.890;2023-02-21T12:31:14;4.07;;;1.17;;
60030;SDS011;45901;47.600;9.890;2023-02-21T12:33:58;3.60;;;1.13;;
60030;SDS011;45901;47.600;9.890;2023-02-21T12:39:53;3.03;;;1.00;;
60030;SDS011;45901;47.600;9.890;2023-02-21T12:42:41;5.80;;;1.07;;
60030;SDS011;45901;47.600;9.890;2023-02-21T12:45:38;7.10;;;1.50;;
60030;SDS011;45901;47.600;9.890;2023-02-21T12:48:17;3.40;;;1.10;;
60030;SDS011;45901;47.600;9.890;2023-02-21T12:50:55;4.93;;;1.60;;
60030;SDS011;45901;47.600;9.890;2023-02-21T12:53:30;4.30;;;1.20;;
60030;SDS011;45901;47.600;9.890;2023-02-21T12:56:07;3.13;;;1.10;;
60030;SDS011;45901;47.600;9.890;2023-02-21T12:58:40;3.23;;;1.13;;
60030;SDS011;45901;47.600;9.890;2023-02-21T13:01:13;2.70;;;1.30;;
60030;SDS011;45901;47.600;9.890;2023-02-21T13:03:48;5.20;;;1.40;;
60030;SDS011;45901;47.600;9.890;2023-02-21T13:06:25;4.43;;;1.50;;
60030;SDS011;45901;47.600;9.890;2023-02-21T13:09:01;4.70;;;1.30;;
60030;SDS011;45901;47.600;9.890;2023-02-21T13:11:40;7.27;;;1.47;;
60030;SDS011;45901;47.600;9.890;2023-02-21T13:14:18;2.77;;;1.33;;
60030;SDS011;45901;47.600;9.890;2023-02-21T13:16:51;6.87;;;1.63;;
60030;SDS011;45901;47.600;9.890;2023-02-21T13:19:19;2.17;;;1.40;;
60030;SDS011;45901;47.600;9.890;2023-02-21T13:22:00;6.30;;;1.80;;
60030;SDS011;45901;47.600;9.890;2023-02-21T13:25:06;6.70;;;1.60;;
60030;SDS011;45901;47.600;9.890;2023-02-21T13:27:56;5.93;;;2.13;;
60030;SDS011;45901;47.600;9.890;2023-02-21T13:30:36;3.10;;;1.40;;
60030;SDS011;45901;47.600;9.890;2023-02-21T13:33:05;4.23;;;1.83;;
60030;SDS011;45901;47.600;9.890;2023-02-21T13:35:47;3.30;;;1.30;;
60030;SDS011;45901;47.600;9.890;2023-02-21T13:38:16;3.33;;;1.33;;
60030;SDS011;45901;47.600;9.890;2023-02-21T13:40:48;4.53;;;1.37;;
60030;SDS011;45901;47.600;9.890;2023-02-21T13:43:36;4.33;;;1.80;;
60030;SDS011;45901;47.600;9.890;2023-02-21T13:49:45;3.37;;;1.17;;
60030;SDS011;45901;47.600;9.890;2023-02-21T13:57:49;3.50;;;1.03;;
60030;SDS011;45901;47.600;9.890;2023-02-21T14:00:51;8.13;;;1.60;;
60030;SDS011;45901;47.600;9.890;2023-02-21T14:06:51;3.70;;;1.60;;
60030;SDS011;45901;47.600;9.890;2023-02-21T14:09:22;3.63;;;1.60;;
60030;SDS011;45901;47.600;9.890;2023-02-21T14:11:51;3.73;;;1.60;;
60030;SDS011;45901;47.600;9.890;2023-02-21T14:26:04;4.37;;;1.77;;
60030;SDS011;45901;47.600;9.890;2023-02-21T14:30:32;5.10;;;1.40;;
60030;SDS011;45901;47.600;9.890;2023-02-21T14:36:24;3.37;;;1.07;;
60030;SDS011;45901;47.600;9.890;2023-02-21T14:38:57;5.00;;;1.43;;
60030;SDS011;45901;47.600;9.890;2023-02-21T14:41:30;3.33;;;1.03;;
60030;SDS011;45901;47.600;9.890;2023-02-21T14:48:17;4.17;;;1.10;;
60030;SDS011;45901;47.600;9.890;2023-02-21T14:51:06;2.47;;;1.33;;
60030;SDS011;45901;47.600;9.890;2023-02-21T14:54:11;5.03;;;1.30;;
60030;SDS011;45901;47.600;9.890;2023-02-21T14:57:09;4.50;;;1.47;;
60030;SDS011;45901;47.600;9.890;2023-02-21T15:00:10;3.10;;;1.20;;
60030;SDS011;45901;47.600;9.890;2023-02-21T15:02:49;5.27;;;1.50;;
60030;SDS011;45901;47.600;9.890;2023-02-21T15:05:22;4.27;;;1.50;;
60030;SDS011;45901;47.600;9.890;2023-02-21T15:07:58;2.53;;;1.33;;
60030;SDS011;45901;47.600;9.890;2023-02-21T15:10:38;5.23;;;1.40;;
60030;SDS011;45901;47.600;9.890;2023-02-21T15:13:18;5.30;;;1.40;;
60030;SDS011;45901;47.600;9.890;2023-02-21T15:15:53;4.23;;;1.77;;
60030;SDS011;45901;47.600;9.890;2023-02-21T15:18:23;4.00;;;1.37;;
60030;SDS011;45901;47.600;9.890;2023-02-21T15:21:03;4.63;;;1.30;;
60030;SDS011;45901;47.600;9.890;2023-02-21T15:23:42;5.50;;;3.03;;
60030;SDS011;45901;47.600;9.890;2023-02-21T15:26:18;6.90;;;1.70;;
60030;SDS011;45901;47.600;9.890;2023-02-21T15:29:02;7.07;;;1.70;;
60030;SDS011;45901;47.600;9.890;2023-02-21T15:35:53;5.37;;;1.73;;
60030;SDS011;45901;47.600;9.890;2023-02-21T15:38:42;4.73;;;1.83;;
60030;SDS011;45901;47.600;9.890;2023-02-21T15:41:22;5.43;;;1.57;;
60030;SDS011;45901;47.600;9.890;2023-02-21T15:43:55;5.97;;;2.83;;
60030;SDS011;45901;47.600;9.890;2023-02-21T15:46:28;3.77;;;1.60;;
60030;SDS011;45901;47.600;9.890;2023-02-21T15:49:03;6.47;;;1.90;;
60030;SDS011;45901;47.600;9.890;2023-02-21T15:51:38;7.40;;;1.77;;
60030;SDS011;45901;47.600;9.890;2023-02-21T15:54:09;4.53;;;1.67;;
60030;SDS011;45901;47.600;9.890;2023-02-21T15:57:40;4.70;;;1.80;;
60030;SDS011;45901;47.600;9.890;2023-02-21T16:00:30;8.00;;;2.27;;
60030;SDS011;45901;47.600;9.890;2023-02-21T16:06:26;4.17;;;2.60;;
60030;SDS011;45901;47.600;9.890;2023-02-21T16:08:58;7.83;;;2.93;;
60030;SDS011;45901;47.600;9.890;2023-02-21T16:11:37;8.77;;;2.97;;
60030;SDS011;45901;47.600;9.890;2023-02-21T16:14:15;9.47;;;3.23;;
60030;SDS011;45901;47.600;9.890;2023-02-21T16:16:47;6.37;;;2.60;;
60030;SDS011;45901;47.600;9.890;2023-02-21T16:19:20;9.80;;;3.20;;
60030;SDS011;45901;47.600;9.890;2023-02-21T16:21:48;5.77;;;2.50;;
60030;SDS011;45901;47.600;9.890;2023-02-21T16:24:27;7.03;;;2.80;;
60030;SDS011;45901;47.600;9.890;2023-02-21T16:27:04;9.33;;;3.20;;
60030;SDS011;45901;47.600;9.890;2023-02-21T16:29:37;7.57;;;2.63;;
60030;SDS011;45901;47.600;9.890;2023-02-21T16:32:04;9.03;;;2.83;;
60030;SDS011;45901;47.600;9.890;2023-02-21T16:34:33;16.20;;;3.97;;
60030;SDS011;45901;47.600;9.890;2023-02-21T16:37:01;11.30;;;3.23;;
60030;SDS011;45901;47.600;9.890;2023-02-21T16:39:34;6.90;;;2.50;;
60030;SDS011;45901;47.600;9.890;2023-02-21T16:42:01;4.70;;;2.40;;
60030;SDS011;45901;47.600;9.890;2023-02-21T16:44:29;3.77;;;1.73;;
60030;SDS011;45901;47.600;9.890;2023-02-21T16:46:57;9.83;;;3.10;;
60030;SDS011;45901;47.600;9.890;2023-02-21T16:49:25;12.03;;;3.43;;
60030;SDS011;45901;47.600;9.890;2023-02-21T16:51:52;15.90;;;3.70;;
60030;SDS011;45901;47.600;9.890;2023-02-21T16:54:19;16.67;;;3.90;;
60030;SDS011;45901;47.600;9.890;2023-02-21T16:56:46;16.77;;;6.67;;
60030;SDS011;45901;47.600;9.890;2023-02-21T16:59:17;18.67;;;7.67;;
60030;SDS011;45901;47.600;9.890;2023-02-21T17:01:48;19.73;;;7.67;;
60030;SDS011;45901;47.600;9.890;2023-02-21T17:04:17;22.17;;;12.27;;
60030;SDS011;45901;47.600;9.890;2023-02-21T17:06:49;24.97;;;13.50;;
60030;SDS011;45901;47.600;9.890;2023-02-21T17:09:21;14.10;;;7.07;;
60030;SDS011;45901;47.600;9.890;2023-02-21T17:11:50;12.90;;;4.77;;
60030;SDS011;45901;47.600;9.890;2023-02-21T17:14:18;9.90;;;3.80;;
60030;SDS011;45901;47.600;9.890;2023-02-21T17:16:46;10.37;;;4.37;;
60030;SDS011;45901;47.600;9.890;2023-02-21T17:19:14;16.73;;;6.40;;
60030;SDS011;45901;47.600;9.890;2023-02-21T17:29:32;20.33;;;11.37;;
60030;SDS011;45901;47.600;9.890;2023-02-21T17:33:55;18.40;;;9.17;;
60030;SDS011;45901;47.600;9.890;2023-02-21T18:05:20;15.67;;;7.40;;
60030;SDS011;45901;47.600;9.890;2023-02-21T18:11:59;16.73;;;6.73;;
60030;SDS011;45901;47.600;9.890;2023-02-21T18:14:28;15.97;;;7.23;;
60030;SDS011;45901;47.600;9.890;2023-02-21T18:16:58;18.37;;;7.20;;
60030;SDS011;45901;47.600;9.890;2023-02-21T18:19:27;17.30;;;7.30;;
60030;SDS011;45901;47.600;9.890;2023-02-21T18:21:54;17.00;;;7.20;;
60030;SDS011;45901;47.600;9.890;2023-02-21T18:24:22;19.20;;;7.97;;
60030;SDS011;45901;47.600;9.890;2023-02-21T18:30:29;15.47;;;7.40;;
60030;SDS011;45901;47.600;9.890;2023-02-21T18:32:57;14.93;;;6.97;;
60030;SDS011;45901;47.600;9.890;2023-02-21T18:35:25;14.00;;;7.87;;
60030;SDS011;45901;47.600;9.890;2023-02-21T18:37:52;18.00;;;8.67;;
60030;SDS011;45901;47.600;9.890;2023-02-21T18:40:19;16.07;;;8.33;;
60030;SDS011;45901;47.600;9.890;2023-02-21T18:42:58;16.37;;;8.87;;
60030;SDS011;45901;47.600;9.890;2023-02-21T18:45:26;14.60;;;8.33;;
60030;SDS011;45901;47.600;9.890;2023-02-21T18:47:54;22.63;;;9.77;;
60030;SDS011;45901;47.600;9.890;2023-02-21T18:50:23;17.30;;;9.93;;
60030;SDS011;45901;47.600;9.890;2023-02-21T18:52:56;21.00;;;10.00;;
60030;SDS011;45901;47.600;9.890;2023-02-21T18:55:23;26.97;;;13.53;;
60030;SDS011;45901;47.600;9.890;2023-02-21T18:57:50;27.83;;;12.13;;
60030;SDS011;45901;47.600;9.890;2023-02-21T19:00:18;17.73;;;10.23;;
60030;SDS011;45901;47.600;9.890;2023-02-21T19:02:46;22.40;;;10.87;;
60030;SDS011;45901;47.600;9.890;2023-02-21T19:05:16;20.63;;;8.53;;
60030;SDS011;45901;47.600;9.890;2023-02-21T19:07:46;18.90;;;8.70;;
60030;SDS011;45901;47.600;9.890;2023-02-21T19:10:16;15.47;;;8.27;;
60030;SDS011;45901;47.600;9.890;2023-02-21T19:12:46;15.87;;;7.17;;
60030;SDS011;45901;47.600;9.890;2023-02-21T19:15:13;14.30;;;8.33;;
60030;SDS011;45901;47.600;9.890;2023-02-21T19:17:44;14.53;;;8.50;;
60030;SDS011;45901;47.600;9.890;2023-02-21T19:20:22;19.00;;;7.80;;
60030;SDS011;45901;47.600;9.890;2023-02-21T19:22:49;15.17;;;8.13;;
60030;SDS011;45901;47.600;9.890;2023-02-21T19:25:18;16.60;;;8.10;;
60030;SDS011;45901;47.600;9.890;2023-02-21T19:27:49;23.57;;;9.60;;
60030;SDS011;45901;47.600;9.890;2023-02-21T19:30:27;18.47;;;9.70;;
60030;SDS011;45901;47.600;9.890;2023-02-21T19:33:50;22.70;;;12.50;;
60030;SDS011;45901;47.600;9.890;2023-02-21T19:36:37;21.13;;;10.20;;
60030;SDS011;45901;47.600;9.890;2023-02-21T19:39:40;20.70;;;10.27;;
60030;SDS011;45901;47.600;9.890;2023-02-21T19:42:24;33.90;;;15.47;;
60030;SDS011;45901;47.600;9.890;2023-02-21T19:44:51;35.47;;;17.30;;
60030;SDS011;45901;47.600;9.890;2023-02-21T19:47:19;33.23;;;16.53;;
60030;SDS011;45901;47.600;9.890;2023-02-21T19:49:53;26.03;;;14.40;;
60030;SDS011;45901;47.600;9.890;2023-02-21T19:53:18;31.67;;;16.73;;
60030;SDS011;45901;47.600;9.890;2023-02-21T19:55:46;27.73;;;15.00;;
60030;SDS011;45901;47.600;9.890;2023-02-21T19:58:14;24.67;;;12.27;;
60030;SDS011;45901;47.600;9.890;2023-02-21T20:01:06;24.23;;;10.90;;
60030;SDS011;45901;47.600;9.890;2023-02-21T20:03:40;22.43;;;9.30;;
60030;SDS011;45901;47.600;9.890;2023-02-21T20:06:13;18.90;;;10.13;;
60030;SDS011;45901;47.600;9.890;2023-02-21T20:11:57;16.83;;;10.00;;
60030;SDS011;45901;47.600;9.890;2023-02-21T20:14:30;18.60;;;9.90;;
60030;SDS011;45901;47.600;9.890;2023-02-21T20:16:58;21.23;;;10.23;;
60030;SDS011;45901;47.600;9.890;2023-02-21T20:19:28;14.90;;;8.50;;
60030;SDS011;45901;47.600;9.890;2023-02-21T20:22:02;25.40;;;11.40;;
60030;SDS011;45901;47.600;9.890;2023-02-21T20:24:36;24.63;;;11.07;;
60030;SDS011;45901;47.600;9.890;2023-02-21T20:27:12;20.47;;;10.83;;
60030;SDS011;45901;47.600;9.890;2023-02-21T20:30:04;19.87;;;10.57;;
60030;SDS011;45901;47.600;9.890;2023-02-21T20:32:32;21.17;;;10.63;;
60030;SDS011;45901;47.600;9.890;2023-02-21T20:35:00;21.57;;;10.33;;
60030;SDS011;45901;47.600;9.890;2023-02-21T20:37:27;20.67;;;11.83;;
60030;SDS011;45901;47.600;9.890;2023-02-21T20:40:02;22.50;;;11.33;;
60030;SDS011;45901;47.600;9.890;2023-02-21T20:43:04;19.93;;;11.23;;
60030;SDS011;45901;47.600;9.890;2023-02-21T20:45:31;19.93;;;11.23;;
60030;SDS011;45901;47.600;9.890;2023-02-21T20:48:06;19.83;;;10.57;;
60030;SDS011;45901;47.600;9.890;2023-02-21T20:50:35;18.73;;;10.83;;
60030;SDS011;45901;47.600;9.890;2023-02-21T20:53:03;23.37;;;11.73;;
60030;SDS011;45901;47.600;9.890;2023-02-21T20:55:32;18.13;;;10.43;;
60030;SDS011;45901;47.600;9.890;2023-02-21T20:58:01;16.77;;;9.33;;